Updated11/12/2019 01:10 
 

GeoURL
free counters
Scottish Weather Network UK Weather Network Cumulus Top Weather Sites

Peebles Weather - Nearby METAR Reports

Raw Data, Raw Data Expanded

Ignore low humidity and Dew Point values. Something wrong with the sensor.
Daytime temperatures are in direct sunlight so may be higher than official air temperature values.
As with any other website, we log your IP address and browser type in the server logs for diagnostic reasons. Cookies are used to record visit time and gauges preferences. No personal information is stored or processed.

All times are in local time (GMT, or BST in summer) unless specified.

2019/12/11 00:50 EGPH 110050Z 22011KT 9999 FEW017 BKN025 04/03 Q0994
3.4°C 0.6 mm 0.6 mm 23.7 mm 6.4 mph 10.7 mph 990.9 hPa 10% X-Ray Solar Flare Level
Planetary K-Index
Planetary K-Index History
Station Warn Rain Snow Flood Wind Ltng Heat Cold Glob Moon Temp Rain 1h Rain Wed Rain 24h Wind 10m Gust Pressure Hum Proton Levels

2.108 m Waxing Gibbous Cold F2-WNW F: A: Kp:0 SSN:0

METAR Reports

 

EGPH - Edinburgh Airpor, United Kingdom
Distance from station: NNW 22mi, 36km
Updated: 11/12/2019 00:50
Mostly cloudy
Mostly cloudy
 Wind from SW
Wind: SW 13 mph , 20 km/h
Temperature: 4°C
Wind Chill: -1°C
Dew Point: 3°C
Humidity: 93%
Barometer: 994 hPa
Clouds: Mostly cloudy
Visibility: 6 miles , 10 km
Cloud details: Few Clouds 518 m
Mostly cloudy 762 m
2019/12/11 00:50 EGPH 110050Z 22011KT 9999 FEW017 BKN025 04/03 Q0994
EGOM - Spadeadam, United Kingdom
Distance from station: SSE 49mi, 79km
Updated: 11/12/2019 00:50
Mostly cloudy
Mostly cloudy
 Wind from WSW
Wind: WSW 25 mph , 41 km/h
Temperature: 4°C
Wind Chill: -2°C
Dew Point: 2°C
Humidity: 87%
Barometer: 997 hPa
Clouds: Mostly cloudy
Visibility: 6 miles , 10 km
Cloud details: Few Clouds 457 m
Mostly cloudy 701 m
2019/12/11 00:50 EGOM 110050Z AUTO 24022KT 9999 FEW015/// BKN023/// 04/02 Q0997
 
EGNC - Carlisle, United Kingdom
Distance from station: SSE 51mi, 82km
Updated: 09/12/2019 17:50
NOT Current
Clear
Clear
 Wind from varies
Wind: varies 2 mph , 4 km/h
Temperature: 2°C
Dew Point: 0°C
Humidity: 87%
Barometer: 1019 hPa
Summary: Clear
Visibility: greater than 7 miles , 10 km
2019/12/09 17:50 EGNC 091750Z VRB02KT CAVOK 02/M00 Q1019
EGPF - Glasgow Airport, United Kingdom
Distance from station: WNW 51mi, 82km
Updated: 11/12/2019 00:50
Light rain, Thunderstorm
Light rain, Thunderstorm
 Wind from SW
Wind: SW 10 mph , 17 km/h
Temperature: 5°C
Wind Chill: 2°C
Dew Point: 2°C
Humidity: 81%
Barometer: 994 hPa
Summary: Light rain
Clouds: Thunderstorm
Visibility: 6 miles , 10 km
Cloud details: Partly cloudy 1158 m
Mostly cloudy 1402 m
2019/12/11 00:50 EGPF 110050Z AUTO 22009KT 9999 -RA SCT038/// BKN046/// //////TCU 05/02 Q0994
 
EGQL - Leuchars Raf, United Kingdom
Distance from station: NNE 53mi, 85km
Updated: 11/12/2019 00:50
Light rain, Showers, Partly cloudy
Light rain, Showers, Partly cloudy
 Wind from WSW
Wind: WSW 20 mph , 31 km/h
Temperature: 4°C
Wind Chill: -2°C
Dew Point: 2°C
Humidity: 87%
Barometer: 992 hPa
Summary: Light rain, Showers
Clouds: Partly cloudy
Visibility: 6 miles , 10 km
Cloud details: Few Clouds 762 m
Partly cloudy 1524 m
2019/12/11 00:50 EGQL 110050Z 25017KT 9999 -SHRA FEW025 SCT050 04/02 Q0992 BLU
EGPK - Prestwick(Civ/Na, United Kingdom
Distance from station: W 55mi, 89km
Updated: 11/12/2019 00:50
Partly cloudy
Partly cloudy
 Wind from SW
Wind: SW 26 mph , 43 km/h
Temperature: 7°C
Wind Chill: 2°C
Dew Point: 3°C
Humidity: 76%
Barometer: 996 hPa
Clouds: Partly cloudy
Visibility: 6 miles , 10 km
Cloud details: Few Clouds 366 m
Partly cloudy 823 m
2019/12/11 00:50 EGPK 110050Z 22023KT 9999 FEW012CB SCT027 07/03 Q0996
 
EGPN - Dundee/Riverside, United Kingdom
Distance from station: N 56mi, 90km
Updated: 10/12/2019 20:20
NOT Current
Few Clouds
Few Clouds
 Wind from W
Wind: W 15 mph , 24 km/h
Temperature: 6°C
Wind Chill: 2°C
Dew Point: 3°C
Humidity: 81%
Barometer: 988 hPa
Clouds: Few Clouds
Visibility: 6 miles , 10 km
Cloud details: Few Clouds 762 m
2019/12/10 20:20 EGPN 102020Z 26013KT 9999 FEW025 06/03 Q0988
EGNT - Newcastle, United Kingdom
Distance from station: SE 72mi, 116km
Updated: 11/12/2019 00:50
Few Clouds
Few Clouds
 Wind from WSW
Wind: WSW 16 mph , 26 km/h
Temperature: 5°C
Wind Chill: 1°C
Dew Point: 2°C
Humidity: 81%
Barometer: 997 hPa
Clouds: Few Clouds
Visibility: 6 miles , 10 km
Cloud details: Few Clouds 914 m
2019/12/11 00:50 EGNT 110050Z 24014KT 210V270 9999 FEW030 05/02 Q0997
 
EGNV - Tees-Side, United Kingdom
Distance from station: SE 104mi, 168km
Updated: 10/12/2019 21:50
NOT Current
Few Clouds
Few Clouds
 Wind from WSW
Wind: WSW 21 mph , 33 km/h
Temperature: 6°C
Wind Chill: 1°C
Dew Point: 2°C
Humidity: 76%
Barometer: 996 hPa
Clouds: Few Clouds
Visibility: 6 miles , 10 km
Cloud details: Few Clouds 975 m
2019/12/10 21:50 EGNV 102150Z 24018KT 9999 FEW032 06/02 Q0996
EGPD - Aberdeen/Dyce, United Kingdom
Distance from station: NNE 114mi, 183km
Updated: 11/12/2019 00:50
Clear
Clear
 Wind from SW
Wind: SW 13 mph , 20 km/h
Temperature: 4°C
Wind Chill: -1°C
Dew Point: 0°C
Humidity: 75%
Barometer: 988 hPa
Clouds: Clear
Visibility: 6 miles , 10 km
2019/12/11 00:50 EGPD 110050Z AUTO 22011KT 9999 NCD 04/00 Q0988
 
EGNS - Isle Of Man/Rona, United Kingdom
Distance from station: SSW 122mi, 197km
Updated: 11/12/2019 00:50
Mostly cloudy
Mostly cloudy
 Wind from WSW
Wind: WSW 23 mph , 37 km/h
Temperature: 8°C
Wind Chill: 3°C
Dew Point: 2°C
Humidity: 66%
Barometer: 1001 hPa
Clouds: Mostly cloudy
Visibility: 6 miles , 10 km
Cloud details: Partly cloudy 732 m
Mostly cloudy 914 m
2019/12/11 00:50 EGNS 110050Z 25020KT 220V280 9999 SCT024 BKN030 08/02 Q1001
EGAC - Belfast Harbour, United Kingdom
Distance from station: WSW 128mi, 206km
Updated: 11/12/2019 00:50
Clear
Clear
 Wind from SW
Wind: SW 16 mph , 26 km/h
Temperature: 4°C
Wind Chill: -1°C
Dew Point: 2°C
Humidity: 87%
Barometer: 999 hPa
Clouds: Clear
Visibility: 6 miles , 10 km
2019/12/11 00:50 EGAC 110050Z AUTO 22014KT 9999 NCD 04/02 Q0999
 
EGPE - Inverness/Dalcro, United Kingdom
Distance from station: NNW 134mi, 215km
Updated: 11/12/2019 00:50
Partly cloudy
Partly cloudy
 Wind from SSW
Wind: SSW 23 mph , 37 km/h
Temperature: 5°C
Wind Chill: -1°C
Dew Point: 1°C
Humidity: 76%
Barometer: 987 hPa
Clouds: Partly cloudy
Visibility: 6 miles , 10 km
Cloud details: Few Clouds 1219 m
Partly cloudy 1402 m
2019/12/11 00:50 EGPE 110050Z AUTO 21020KT 9999 FEW040/// SCT046/// 05/01 Q0987
XHTML 1.1 | CSS